createdAt,value
2018-07-25T00:02:16.671Z,79.79
2018-07-25T00:04:45.358Z,79.43
2018-07-25T00:07:14.055Z,79.49
2018-07-25T00:09:42.650Z,79.24
2018-07-25T00:12:11.296Z,79.67
2018-07-25T00:14:39.958Z,79.25
2018-07-25T00:17:08.609Z,79.11
2018-07-25T00:19:37.249Z,78.66
2018-07-25T00:22:05.978Z,78.64
2018-07-25T00:24:34.671Z,78.85
2018-07-25T00:27:03.366Z,78.44
2018-07-25T00:29:31.974Z,78.84
2018-07-25T00:32:00.667Z,78.82
2018-07-25T00:34:29.359Z,78.49
2018-07-25T00:36:57.955Z,78.43
2018-07-25T00:39:26.599Z,78.19
2018-07-25T00:41:55.213Z,78.16
2018-07-25T00:44:23.798Z,78.68
2018-07-25T00:46:52.409Z,78.75
2018-07-25T00:49:21.027Z,78.64
2018-07-25T00:51:49.649Z,78.56
2018-07-25T00:54:18.273Z,78.76
2018-07-25T00:56:46.866Z,78.43
2018-07-25T00:59:15.479Z,78.67
2018-07-25T01:01:44.125Z,78.49
2018-07-25T01:04:12.750Z,78.66
2018-07-25T01:06:41.422Z,78.76
2018-07-25T01:09:11.340Z,78.48
2018-07-25T01:11:40.102Z,78.53
2018-07-25T01:14:08.769Z,78.43
2018-07-25T01:16:37.458Z,78.46
2018-07-25T01:19:06.161Z,78.64
2018-07-25T01:21:34.837Z,78.61
2018-07-25T01:24:03.575Z,78.77
2018-07-25T01:26:32.279Z,78.69
2018-07-25T01:29:00.895Z,78.74
2018-07-25T01:31:29.547Z,78.57
2018-07-25T01:33:58.148Z,78.46
2018-07-25T01:36:26.882Z,78.82
2018-07-25T01:38:55.519Z,78.97
2018-07-25T01:41:24.152Z,78.79
2018-07-25T01:43:52.788Z,78.58
2018-07-25T01:46:21.474Z,78.67
2018-07-25T01:48:50.115Z,78.99
2018-07-25T01:51:18.777Z,79.18
2018-07-25T01:53:47.393Z,79.21
2018-07-25T01:56:16.046Z,79.22
2018-07-25T01:58:44.742Z,79.28
2018-07-25T02:01:13.362Z,79.11
2018-07-25T02:03:42.027Z,79.56
2018-07-25T02:06:10.610Z,79.22
2018-07-25T02:08:39.238Z,79.46
2018-07-25T02:11:07.935Z,79.55
2018-07-25T02:13:36.617Z,79.77
2018-07-25T02:16:05.314Z,80.04
2018-07-25T02:18:34.071Z,80.31
2018-07-25T02:21:02.708Z,80.36
2018-07-25T02:23:31.402Z,80.05
2018-07-25T02:26:00.022Z,80.55
2018-07-25T02:28:28.630Z,80.35
2018-07-25T02:30:57.250Z,80.44
2018-07-25T02:33:31.075Z,80.77
2018-07-25T02:35:59.703Z,80.88
2018-07-25T02:38:28.299Z,80.92
2018-07-25T02:40:56.914Z,80.83
2018-07-25T02:43:25.630Z,81.07
2018-07-25T02:45:54.381Z,80.67
2018-07-25T02:48:22.963Z,80.77
2018-07-25T02:50:51.575Z,80.73
2018-07-25T02:53:20.170Z,80.53
2018-07-25T02:55:48.790Z,80.73
2018-07-25T02:58:17.391Z,80.58
2018-07-25T03:00:46.038Z,80.76
2018-07-25T03:03:14.647Z,80.42
2018-07-25T03:05:43.293Z,80.63
2018-07-25T03:08:11.971Z,80.08
2018-07-25T03:10:44.698Z,80.47
2018-07-25T03:13:13.359Z,80.53
2018-07-25T03:15:41.976Z,80.22
2018-07-25T03:18:10.717Z,80.01
2018-07-25T03:20:39.491Z,80.03
2018-07-25T03:23:08.778Z,79.85
2018-07-25T03:25:37.425Z,79.71
2018-07-25T03:28:06.013Z,79.79
2018-07-25T03:30:34.590Z,79.57
2018-07-25T03:33:03.255Z,79.45
2018-07-25T03:35:31.896Z,79.44
2018-07-25T03:38:00.562Z,79.45
2018-07-25T03:40:29.689Z,79.25
2018-07-25T03:42:58.320Z,79.41
2018-07-25T03:45:26.942Z,79.25
2018-07-25T03:47:55.571Z,79.43
2018-07-25T03:50:24.425Z,79.51
2018-07-25T03:52:53.037Z,79.07
2018-07-25T03:55:21.643Z,78.97
2018-07-25T03:57:50.292Z,78.71
2018-07-25T04:00:19.075Z,78.73
2018-07-25T04:02:47.703Z,78.44
2018-07-25T04:05:16.488Z,79.03
2018-07-25T04:07:45.164Z,78.85
2018-07-25T04:10:13.778Z,78.74
2018-07-25T04:12:42.532Z,78.90
2018-07-25T04:15:11.177Z,78.71
2018-07-25T04:17:46.051Z,78.88
2018-07-25T04:20:15.892Z,79.06
2018-07-25T04:22:44.554Z,78.81
2018-07-25T04:25:13.198Z,79.00
2018-07-25T04:27:43.920Z,78.93
2018-07-25T04:30:13.826Z,78.62
2018-07-25T04:32:43.537Z,78.56
2018-07-25T04:35:13.682Z,78.38
2018-07-25T04:37:43.068Z,78.39
2018-07-25T04:40:11.757Z,78.47
2018-07-25T04:42:40.493Z,78.55
2018-07-25T04:45:10.549Z,78.55
2018-07-25T04:47:39.274Z,78.90
2018-07-25T04:50:08.194Z,78.74
2018-07-25T04:52:37.470Z,78.68
2018-07-25T04:55:06.186Z,78.44
2018-07-25T04:57:34.856Z,78.49
2018-07-25T05:00:04.817Z,78.78
2018-07-25T05:02:33.501Z,78.58
2018-07-25T05:05:02.208Z,78.54
2018-07-25T05:07:30.948Z,78.53
2018-07-25T05:09:59.641Z,78.24
2018-07-25T05:12:28.297Z,79.27
2018-07-25T05:14:56.939Z,80.07
2018-07-25T05:17:25.635Z,80.35
2018-07-25T05:19:54.320Z,81.16
2018-07-25T05:22:22.919Z,82.21
2018-07-25T05:24:51.588Z,82.97
2018-07-25T05:27:20.189Z,83.18
2018-07-25T05:29:48.868Z,83.44
2018-07-25T05:32:17.526Z,84.20
2018-07-25T05:34:46.190Z,83.56
2018-07-25T05:37:14.847Z,83.47
2018-07-25T05:39:43.542Z,84.13
2018-07-25T05:42:12.271Z,82.98
2018-07-25T05:44:40.913Z,82.93
2018-07-25T05:47:09.627Z,82.87
2018-07-25T05:49:38.211Z,82.94
2018-07-25T05:52:06.798Z,82.01
2018-07-25T05:54:35.431Z,82.19
2018-07-25T05:57:04.080Z,82.25
2018-07-25T05:59:32.679Z,81.92
2018-07-25T06:02:01.383Z,81.52
2018-07-25T06:04:30.056Z,81.93
2018-07-25T06:06:58.728Z,81.20
2018-07-25T06:09:27.341Z,81.32
2018-07-25T06:11:55.978Z,81.35
2018-07-25T06:14:24.695Z,81.51
2018-07-25T06:16:53.298Z,80.62
2018-07-25T06:19:22.021Z,80.88
2018-07-25T06:21:50.685Z,79.87
2018-07-25T06:24:19.348Z,79.94
2018-07-25T06:26:48.018Z,80.42
2018-07-25T06:29:16.672Z,80.31
2018-07-25T06:31:45.328Z,80.31
2018-07-25T06:34:14.030Z,79.90
2018-07-25T06:36:42.719Z,79.70
2018-07-25T06:39:13.015Z,79.79
2018-07-25T06:41:41.747Z,79.95
2018-07-25T06:44:10.695Z,80.42
2018-07-25T06:46:39.510Z,80.49
2018-07-25T06:49:08.814Z,81.79
2018-07-25T06:51:37.471Z,81.47
2018-07-25T06:54:06.393Z,80.62
2018-07-25T06:56:35.012Z,80.60
2018-07-25T06:59:03.678Z,81.68
2018-07-25T07:01:32.407Z,81.56
2018-07-25T07:04:01.032Z,82.65
2018-07-25T07:06:29.698Z,81.64
2018-07-25T07:08:58.341Z,81.80
2018-07-25T07:11:27.036Z,82.27
2018-07-25T07:13:55.735Z,81.62
2018-07-25T07:16:24.439Z,81.32
2018-07-25T07:18:53.050Z,80.83
2018-07-25T07:21:21.726Z,80.62
2018-07-25T07:23:50.372Z,80.90
2018-07-25T07:26:20.186Z,80.22
2018-07-25T07:28:48.788Z,80.90
2018-07-25T07:34:10.052Z,80.08
2018-07-25T07:36:38.709Z,80.75
2018-07-25T07:39:10.767Z,82.23
2018-07-25T07:41:39.715Z,83.17
2018-07-25T07:44:08.439Z,81.61
2018-07-25T07:46:37.581Z,82.40
2018-07-25T07:49:06.404Z,80.99
2018-07-25T07:51:35.050Z,81.11
2018-07-25T07:54:03.740Z,81.33
2018-07-25T07:56:32.820Z,80.73
2018-07-25T07:59:01.494Z,80.90
2018-07-25T08:01:30.280Z,79.70
2018-07-25T08:03:58.884Z,78.87
2018-07-25T08:06:27.579Z,80.10
2018-07-25T08:08:56.256Z,80.20
2018-07-25T08:11:24.986Z,80.26
2018-07-25T08:13:53.721Z,79.34
2018-07-25T08:16:22.352Z,79.03
2018-07-25T08:18:51.018Z,77.56
2018-07-25T08:21:19.853Z,77.74
2018-07-25T08:23:48.470Z,76.56
2018-07-25T08:26:17.160Z,77.58
2018-07-25T08:28:45.788Z,77.58
2018-07-25T08:31:14.972Z,77.41
2018-07-25T08:33:43.570Z,76.28
2018-07-25T08:36:12.201Z,76.37
2018-07-25T08:38:42.222Z,75.27
2018-07-25T08:41:10.919Z,75.30
2018-07-25T08:43:40.729Z,75.59
2018-07-25T08:46:10.564Z,74.69
2018-07-25T08:48:39.656Z,74.87
2018-07-25T08:51:08.345Z,74.57
2018-07-25T08:53:37.452Z,74.08
2018-07-25T08:56:06.359Z,73.27
2018-07-25T08:58:35.028Z,73.76
2018-07-25T09:01:03.764Z,74.66
2018-07-25T09:03:32.460Z,74.33
2018-07-25T09:06:01.102Z,75.44
2018-07-25T09:08:29.794Z,75.08
2018-07-25T09:10:58.479Z,74.29
2018-07-25T09:13:27.147Z,75.49
2018-07-25T09:15:55.815Z,76.47
2018-07-25T09:18:24.585Z,74.68
2018-07-25T09:20:53.443Z,75.17
2018-07-25T09:23:22.088Z,75.66
2018-07-25T09:25:50.743Z,76.52
2018-07-25T09:28:19.371Z,76.46
2018-07-25T09:30:48.039Z,77.12
2018-07-25T09:33:16.650Z,76.60
2018-07-25T09:35:45.339Z,75.95
2018-07-25T09:38:14.008Z,76.51
2018-07-25T09:40:42.681Z,74.73
2018-07-25T09:43:11.331Z,75.49
2018-07-25T09:45:40.194Z,74.83
2018-07-25T09:48:08.851Z,75.54
2018-07-25T09:50:37.512Z,75.19
2018-07-25T09:53:06.331Z,75.22
2018-07-25T09:55:36.337Z,74.54
2018-07-25T09:58:04.989Z,74.81
2018-07-25T10:00:38.947Z,73.31
2018-07-25T10:03:07.653Z,73.62
2018-07-25T10:05:36.379Z,73.08
2018-07-25T10:08:05.051Z,71.43
2018-07-25T10:10:33.662Z,71.45
2018-07-25T10:13:02.329Z,69.72
2018-07-25T10:15:30.982Z,70.93
2018-07-25T10:17:59.676Z,70.68
2018-07-25T10:20:28.384Z,71.30
2018-07-25T10:22:57.061Z,70.43
2018-07-25T10:25:25.693Z,71.07
2018-07-25T10:27:54.399Z,70.38
2018-07-25T10:30:23.237Z,71.93
2018-07-25T10:32:52.041Z,70.85
2018-07-25T10:35:20.655Z,70.08
2018-07-25T10:37:49.320Z,71.34
2018-07-25T10:40:17.932Z,71.88
2018-07-25T10:42:46.634Z,71.89
2018-07-25T10:45:15.324Z,72.16
2018-07-25T10:47:44.091Z,72.03
2018-07-25T10:50:12.810Z,72.20
2018-07-25T10:52:42.075Z,70.83
2018-07-25T10:55:10.731Z,71.46
2018-07-25T10:57:39.459Z,71.07
2018-07-25T11:00:09.031Z,70.76
2018-07-25T11:02:38.188Z,70.33
2018-07-25T11:05:07.168Z,70.78
2018-07-25T11:07:35.854Z,70.87
2018-07-25T11:10:05.006Z,71.72
2018-07-25T11:12:33.673Z,71.69
2018-07-25T11:15:02.295Z,69.11
2018-07-25T11:17:30.960Z,70.41
2018-07-25T11:19:59.625Z,67.70
2018-07-25T11:22:28.254Z,67.99
2018-07-25T11:24:56.930Z,67.58
2018-07-25T11:27:25.892Z,67.08
2018-07-25T11:29:54.555Z,68.02
2018-07-25T11:32:23.303Z,66.70
2018-07-25T11:34:51.949Z,68.64
2018-07-25T11:37:20.537Z,68.04
2018-07-25T11:39:49.224Z,65.97
2018-07-25T11:42:17.896Z,66.48
2018-07-25T11:44:46.568Z,65.58
2018-07-25T11:47:15.226Z,63.75
2018-07-25T11:49:43.915Z,63.44
2018-07-25T11:52:12.627Z,64.08
2018-07-25T11:54:41.316Z,61.76
2018-07-25T11:57:10.079Z,61.46
2018-07-25T11:59:38.779Z,63.50
2018-07-25T12:02:07.518Z,62.68
2018-07-25T12:04:36.172Z,63.86
2018-07-25T12:07:04.782Z,64.44
2018-07-25T12:09:33.439Z,67.65
2018-07-25T12:12:02.166Z,66.50
2018-07-25T12:14:30.834Z,69.20
2018-07-25T12:16:59.625Z,67.14
2018-07-25T12:19:28.271Z,69.07
2018-07-25T12:21:56.897Z,67.82
2018-07-25T12:24:25.535Z,66.91
2018-07-25T12:26:54.171Z,65.95
2018-07-25T12:29:22.874Z,62.86
2018-07-25T12:31:51.535Z,58.39
2018-07-25T12:34:20.222Z,59.35
2018-07-25T12:36:48.932Z,59.08
2018-07-25T12:39:17.629Z,59.36
2018-07-25T12:41:46.344Z,58.76
2018-07-25T12:44:15.020Z,56.78
2018-07-25T12:46:43.723Z,57.10
2018-07-25T12:49:12.346Z,57.97
2018-07-25T12:51:41.026Z,59.11
2018-07-25T12:54:09.772Z,60.38
2018-07-25T12:56:38.367Z,58.55
2018-07-25T12:59:07.064Z,58.50
2018-07-25T13:01:35.781Z,60.14
2018-07-25T13:04:04.505Z,60.02
2018-07-25T13:06:33.234Z,60.25
2018-07-25T13:09:01.901Z,60.75
2018-07-25T13:11:31.226Z,60.40
2018-07-25T13:13:59.865Z,59.40
2018-07-25T13:16:28.789Z,57.46
2018-07-25T13:18:57.431Z,57.87
2018-07-25T13:21:26.147Z,58.68
2018-07-25T13:23:54.822Z,58.18
2018-07-25T13:26:23.516Z,59.78
2018-07-25T13:28:52.280Z,61.48
2018-07-25T13:31:21.550Z,61.08
2018-07-25T13:33:50.170Z,60.37
2018-07-25T13:36:18.957Z,62.14
2018-07-25T13:38:47.638Z,62.41
2018-07-25T13:41:16.384Z,61.46
2018-07-25T13:43:45.034Z,59.98
2018-07-25T13:46:13.779Z,60.56
2018-07-25T13:48:42.412Z,59.88
2018-07-25T13:51:11.066Z,59.96
2018-07-25T13:53:39.737Z,58.30
2018-07-25T13:56:08.400Z,56.83
2018-07-25T13:58:37.104Z,58.72
2018-07-25T14:01:05.919Z,57.07
2018-07-25T14:03:34.545Z,58.12
2018-07-25T14:06:03.204Z,57.97
2018-07-25T14:08:31.920Z,57.50
2018-07-25T14:11:00.646Z,56.31
2018-07-25T14:13:29.296Z,55.69
2018-07-25T14:15:57.976Z,54.96
2018-07-25T14:18:26.662Z,56.19
2018-07-25T14:20:55.343Z,58.37
2018-07-25T14:23:24.041Z,57.35
2018-07-25T14:25:52.724Z,56.99
2018-07-25T14:28:21.400Z,58.39
2018-07-25T14:30:50.104Z,62.36
2018-07-25T14:33:18.769Z,62.71
2018-07-25T14:35:47.476Z,62.71
2018-07-25T14:38:16.152Z,63.35
2018-07-25T14:40:44.939Z,62.78
2018-07-25T14:43:13.669Z,63.79
2018-07-25T14:45:42.266Z,63.45
2018-07-25T14:48:10.914Z,64.27
2018-07-25T14:50:39.567Z,62.48
2018-07-25T14:53:08.239Z,63.31
2018-07-25T14:58:10.752Z,62.39
2018-07-25T15:00:39.462Z,62.48
2018-07-25T15:03:08.094Z,61.32
2018-07-25T15:05:36.755Z,61.75
2018-07-25T15:08:05.952Z,59.56
2018-07-25T15:10:34.630Z,60.91
2018-07-25T15:13:03.397Z,60.47
2018-07-25T15:15:32.062Z,60.91
2018-07-25T15:18:00.802Z,59.46
2018-07-25T15:20:29.503Z,57.71
2018-07-25T15:22:58.315Z,57.64
2018-07-25T15:25:26.973Z,57.73
2018-07-25T15:27:55.662Z,58.37
2018-07-25T15:30:24.396Z,58.76
2018-07-25T15:32:53.113Z,58.81
2018-07-25T15:35:21.767Z,59.20
2018-07-25T15:37:50.463Z,57.47
2018-07-25T15:40:19.198Z,59.19
2018-07-25T15:42:47.934Z,60.28
2018-07-25T15:45:16.578Z,60.99
2018-07-25T15:47:45.295Z,60.50
2018-07-25T15:50:14.008Z,61.68
2018-07-25T15:52:42.770Z,61.52
2018-07-25T15:55:11.587Z,61.33
2018-07-25T15:57:40.338Z,61.60
2018-07-25T16:00:09.290Z,61.10
2018-07-25T16:02:38.383Z,61.66
2018-07-25T16:05:07.172Z,60.54
2018-07-25T16:07:35.864Z,60.19
2018-07-25T16:10:05.041Z,60.71
2018-07-25T16:12:33.744Z,60.20
2018-07-25T16:15:02.681Z,60.71
2018-07-25T16:17:31.622Z,60.31
2018-07-25T16:20:00.396Z,60.80
2018-07-25T16:22:29.164Z,61.45
2018-07-25T16:24:57.883Z,61.43
2018-07-25T16:27:26.654Z,61.04
2018-07-25T16:29:55.400Z,61.50
2018-07-25T16:32:24.213Z,61.39
2018-07-25T16:34:52.866Z,61.51
2018-07-25T16:37:21.610Z,60.57
2018-07-25T16:39:50.242Z,61.26
2018-07-25T16:42:18.917Z,62.31
2018-07-25T16:44:47.541Z,61.47
2018-07-25T16:47:16.211Z,62.57
2018-07-25T16:49:44.881Z,63.39
2018-07-25T16:52:13.525Z,63.21
2018-07-25T16:54:42.321Z,64.40
2018-07-25T16:57:10.957Z,65.76
2018-07-25T16:59:39.700Z,65.80
2018-07-25T17:02:08.456Z,67.73
2018-07-25T17:04:37.265Z,68.98
2018-07-25T17:07:06.771Z,71.23
2018-07-25T17:09:35.760Z,71.31
2018-07-25T17:12:04.490Z,71.71
2018-07-25T17:14:33.249Z,72.69
2018-07-25T17:17:01.893Z,73.75
2018-07-25T17:19:30.623Z,74.15
2018-07-25T17:21:59.317Z,75.33
2018-07-25T17:24:28.008Z,75.58
2018-07-25T17:26:56.664Z,76.25
2018-07-25T17:29:25.346Z,76.01
2018-07-25T17:31:54.198Z,76.74
2018-07-25T17:34:22.904Z,76.75
2018-07-25T17:36:51.692Z,77.80
2018-07-25T17:39:20.398Z,77.80
2018-07-25T17:41:49.128Z,77.96
2018-07-25T17:44:17.834Z,78.67
2018-07-25T17:46:46.612Z,78.18
2018-07-25T17:49:15.427Z,78.16
2018-07-25T17:51:44.167Z,78.15
2018-07-25T17:54:12.776Z,76.76
2018-07-25T17:56:41.435Z,76.99
2018-07-25T17:59:10.143Z,75.79
2018-07-25T18:01:38.872Z,76.53
2018-07-25T18:04:07.718Z,76.61
2018-07-25T18:06:36.479Z,76.57
2018-07-25T18:09:08.055Z,76.35
2018-07-25T18:11:36.723Z,75.68
2018-07-25T18:14:10.760Z,75.99
2018-07-25T18:16:39.587Z,75.91
2018-07-25T18:19:08.390Z,75.96
2018-07-25T18:21:37.083Z,75.62
2018-07-25T18:24:05.893Z,75.65
2018-07-25T18:26:35.189Z,75.91
2018-07-25T18:29:04.009Z,75.98
2018-07-25T18:31:32.642Z,76.25
2018-07-25T18:34:01.344Z,76.24
2018-07-25T18:36:30.207Z,75.66
2018-07-25T18:38:58.931Z,75.61
2018-07-25T18:41:27.801Z,75.93
2018-07-25T18:43:56.930Z,76.26
2018-07-25T18:46:26.357Z,76.38
2018-07-25T18:51:28.891Z,75.96
2018-07-25T18:57:06.410Z,75.12
2018-07-25T18:59:35.936Z,75.08
2018-07-25T19:02:04.656Z,75.20
2018-07-25T19:04:33.331Z,74.87
2018-07-25T19:07:02.748Z,75.38
2018-07-25T19:09:31.425Z,75.36
2018-07-25T19:12:00.176Z,74.95
2018-07-25T19:14:33.909Z,75.25
2018-07-25T19:17:02.567Z,75.07
2018-07-25T19:21:59.365Z,74.73
2018-07-25T19:24:28.070Z,75.09
2018-07-25T19:26:56.725Z,74.75
2018-07-25T19:29:26.756Z,75.06
2018-07-25T19:31:55.460Z,75.01
2018-07-25T19:34:24.081Z,74.97
2018-07-25T19:36:52.701Z,75.11
2018-07-25T19:39:21.412Z,75.14
2018-07-25T19:41:50.383Z,75.15
2018-07-25T19:44:19.084Z,75.34
2018-07-25T19:46:47.685Z,75.48
2018-07-25T19:51:24.805Z,75.56
2018-07-25T19:53:53.467Z,75.49
2018-07-25T19:56:22.212Z,76.08
2018-07-25T19:58:50.934Z,76.21
2018-07-25T20:01:20.613Z,76.39
2018-07-25T20:03:49.258Z,76.18
2018-07-25T20:06:17.900Z,76.22
2018-07-25T20:08:47.143Z,76.42
2018-07-25T20:11:15.806Z,76.09
2018-07-25T20:13:49.605Z,75.82
2018-07-25T20:16:18.588Z,75.84
2018-07-25T20:18:47.195Z,76.56
2018-07-25T20:21:15.817Z,76.62
2018-07-25T20:23:44.470Z,76.52
2018-07-25T20:26:13.052Z,77.07
2018-07-25T20:28:42.756Z,77.06
2018-07-25T20:31:11.399Z,76.99
2018-07-25T20:33:40.160Z,77.78
2018-07-25T20:36:08.807Z,77.33
2018-07-25T20:38:37.482Z,77.52
2018-07-25T20:41:06.142Z,78.17
2018-07-25T20:43:34.813Z,78.41
2018-07-25T20:46:03.504Z,78.72
2018-07-25T20:48:32.188Z,78.96
2018-07-25T20:51:00.871Z,79.62
2018-07-25T20:53:29.570Z,79.21
2018-07-25T20:55:58.221Z,79.18
2018-07-25T20:58:26.869Z,79.20
2018-07-25T21:00:55.582Z,78.96
2018-07-25T21:03:24.233Z,78.96
2018-07-25T21:05:52.846Z,79.13
2018-07-25T21:08:21.461Z,79.02
2018-07-25T21:10:50.110Z,78.92
2018-07-25T21:13:18.725Z,78.62
2018-07-25T21:15:47.382Z,78.92
2018-07-25T21:18:16.081Z,79.02
2018-07-25T21:20:44.714Z,79.28
2018-07-25T21:23:13.374Z,79.42
2018-07-25T21:25:42.034Z,79.67
2018-07-25T21:28:10.661Z,79.22
2018-07-25T21:30:39.303Z,79.53
2018-07-25T21:33:08.038Z,79.49
2018-07-25T21:35:36.638Z,79.50
2018-07-25T21:38:05.354Z,79.68
2018-07-25T21:40:33.967Z,79.30
2018-07-25T21:43:02.581Z,79.47
2018-07-25T21:45:31.776Z,79.45
2018-07-25T21:48:00.376Z,80.01
2018-07-25T21:50:29.038Z,80.07
2018-07-25T21:52:57.645Z,80.03
2018-07-25T21:55:26.302Z,80.15
2018-07-25T21:57:55.693Z,80.26
2018-07-25T22:00:24.472Z,80.16
2018-07-25T22:02:53.108Z,79.89
2018-07-25T22:05:21.705Z,79.79
2018-07-25T22:07:50.349Z,79.75
2018-07-25T22:10:18.961Z,79.67
2018-07-25T22:12:47.568Z,79.49
2018-07-25T22:15:16.195Z,79.52
2018-07-25T22:17:44.844Z,79.53
2018-07-25T22:20:13.576Z,79.45
2018-07-25T22:22:42.210Z,79.11
2018-07-25T22:25:11.261Z,79.18
2018-07-25T22:27:40.536Z,79.10
2018-07-25T22:30:09.568Z,78.95
2018-07-25T22:32:38.224Z,79.14
2018-07-25T22:35:07.031Z,78.72
2018-07-25T22:37:35.646Z,78.63
2018-07-25T22:40:04.337Z,78.53
2018-07-25T22:42:32.991Z,78.51
2018-07-25T22:45:01.610Z,78.32
2018-07-25T22:47:30.227Z,78.73
2018-07-25T22:49:58.822Z,79.04
2018-07-25T22:52:27.514Z,78.77
2018-07-25T22:54:56.103Z,79.19
2018-07-25T22:57:24.819Z,79.30
2018-07-25T22:59:53.462Z,79.88
2018-07-25T23:02:22.100Z,79.46
2018-07-25T23:04:50.750Z,79.42
2018-07-25T23:07:19.339Z,79.54
2018-07-25T23:09:47.937Z,79.80
2018-07-25T23:12:16.564Z,79.74
2018-07-25T23:14:45.264Z,79.47
2018-07-25T23:17:13.913Z,79.40
2018-07-25T23:19:42.549Z,79.52
2018-07-25T23:22:11.199Z,79.14
2018-07-25T23:24:39.808Z,79.13
2018-07-25T23:27:08.439Z,79.07
2018-07-25T23:29:37.075Z,79.39
2018-07-25T23:32:05.711Z,79.60
2018-07-25T23:34:34.474Z,80.04
2018-07-25T23:37:03.075Z,79.99
2018-07-25T23:39:31.706Z,79.65
2018-07-25T23:42:00.332Z,79.94
2018-07-25T23:44:28.971Z,79.96
2018-07-25T23:46:57.639Z,80.21
2018-07-25T23:49:26.279Z,80.60
2018-07-25T23:51:54.923Z,80.24
2018-07-25T23:54:23.587Z,80.61
2018-07-25T23:56:52.191Z,80.70
2018-07-25T23:59:20.804Z,80.64
